KC3HIX Weather Reports


time (UTC)temp
C
wind
direction
speed
KPH
gust
KPH
rain 1hr
cm
rain 24hr
cm
rain mn
cm
humidity
%
barometer
mb
20260509234509 13 0 0.0 0.0 0.00 0.76 0.76 84 1008.2
20260509234010 13 0 0.0 0.0 0.00 0.76 0.76 84 1008.2
20260509233510 14 0 0.0 0.0 0.00 0.76 0.76 83 1008.2
20260509233010 14 0 0.0 0.0 0.00 0.76 0.76 83 1008.2
20260509232530 14 0 0.0 0.0 0.00 0.76 0.76 83 1008.6
20260509232009 14 0 0.0 0.0 0.00 0.76 0.76 83 1008.6
20260509231509 14 0 0.0 0.0 0.00 0.76 0.76 82 1008.6
20260509231031 14 0 0.0 0.0 0.00 0.76 0.76 82 1008.2
20260509230509 15 0 0.0 0.0 0.00 0.76 0.76 82 1008.2
20260509230009 15 0 0.0 0.0 0.00 0.76 0.76 82 1008.6
20260509225509 15 0 0.0 0.0 0.00 0.76 0.76 82 1008.6
20260509225009 15 0 0.0 0.0 0.00 0.76 0.76 83 1008.6
20260509224509 15 0 0.0 0.0 0.00 0.76 0.76 83 1008.6
20260509224009 15 0 0.0 0.0 0.00 0.76 0.76 82 1008.6
20260509223530 15 0 0.0 0.0 0.00 0.76 0.76 82 1008.6
20260509223009 15 0 0.0 0.0 0.00 0.76 0.76 82 1008.6
20260509222509 15 0 0.0 0.0 0.00 0.76 0.76 82 1008.2
20260509222009 15 0 0.0 0.0 0.00 0.76 0.76 82 1008.6
20260509221509 16 0 0.0 0.0 0.00 0.76 0.76 83 1008.6
20260509221030 16 0 0.0 0.0 0.00 0.76 0.76 82 1008.9
20260509220509 16 0 0.0 0.0 0.00 0.76 0.76 82 1008.6
20260509220009 16 0 0.0 0.0 0.00 0.76 0.76 82 1008.9
20260509215509 16 0 0.0 0.0 0.00 0.76 0.76 82 1008.9
20260509215009 16 0 0.0 0.0 0.00 0.76 0.76 81 1008.9
20260509214509 16 0 0.0 0.0 0.00 0.76 0.76 82 1008.9
20260509214009 16 0 0.0 0.0 0.00 0.76 0.76 82 1008.9
20260509213509 16 0 0.0 0.0 0.00 0.76 0.76 82 1008.9
20260509213009 16 0 0.0 0.0 0.00 0.76 0.76 83 1008.9
20260509212530 16 0 0.0 0.0 0.00 0.76 0.76 84 1008.9
20260509212009 16 0 0.0 0.0 0.00 0.76 0.76 83 1008.9
20260509211509 16 0 0.0 0.0 0.00 0.76 0.76 81 1008.9
20260509211009 16 0 0.0 0.0 0.00 0.76 0.76 82 1008.9
20260509210509 16 0 0.0 0.0 0.00 0.76 0.76 84 1008.9
20260509210009 16 0 0.0 0.0 0.00 0.76 0.76 85 1008.9
20260509205509 16 0 0.0 0.0 0.00 0.76 0.76 85 1008.9
20260509205009 16 0 0.0 0.0 0.00 0.76 0.76 85 1008.9
20260509204530 15 0 0.0 0.0 0.00 0.76 0.76 85 1008.9
20260509204009 15 0 0.0 0.0 0.03 0.76 0.76 85 1008.9
20260509203509 15 0 0.0 0.0 0.03 0.76 0.76 84 1009.3
20260509203009 15 0 0.0 0.0 0.03 0.76 0.76 84 1009.3
20260509202509 16 0 0.0 0.0 0.03 0.76 0.76 85 1009.6
20260509202009 16 0 0.0 0.0 0.03 0.76 0.76 86 1009.3
20260509201509 15 0 0.0 0.0 0.03 0.76 0.76 87 1009.3
20260509201009 15 0 0.0 0.0 0.03 0.76 0.76 87 1009.6
20260509200509 15 0 0.0 0.0 0.03 0.76 0.76 88 1009.3
20260509200030 15 0 0.0 0.0 0.03 0.76 0.76 88 1009.3
20260509195509 15 0 0.0 0.0 0.03 0.76 0.76 89 1009.3
20260509195009 15 0 0.0 0.0 0.05 0.76 0.76 89 1009.3
20260509194530 15 0 0.0 0.0 0.05 0.76 0.76 89 1009.6
20260509194009 14 0 0.0 0.0 0.03 0.74 0.74 88 1009.6
20260509193509 14 0 0.0 0.0 0.03 0.74 0.74 89 1009.6
20260509193009 14 0 0.0 0.0 0.03 0.74 0.74 88 1009.6
20260509192509 15 0 0.0 0.0 0.05 0.74 0.74 89 1009.9
20260509192008 15 0 0.0 0.0 0.08 0.74 0.74 89 1009.9
20260509191508 14 0 0.0 0.0 0.08 0.74 0.74 90 1009.6
20260509191009 14 0 0.0 0.0 0.10 0.76 0.74 90 1009.9
20260509190509 14 0 0.0 0.0 0.13 0.76 0.74 91 1009.6
20260509190009 14 0 0.0 0.0 0.15 0.76 0.74 91 1009.9
20260509185508 13 0 0.0 0.0 0.18 0.76 0.74 93 1009.9
20260509185009 13 0 0.0 0.0 0.18 0.74 0.71 93 1009.9
20260509184508 13 0 0.0 0.0 0.20 0.74 0.71 93 1009.9
20260509184008 13 0 0.0 0.0 0.23 0.74 0.71 93 1009.9
20260509183508 13 0 0.0 0.0 0.25 0.74 0.71 92 1009.9
20260509183030 13 0 0.0 0.0 0.28 0.74 0.71 92 1009.9
20260509182508 13 0 0.0 0.0 0.28 0.71 0.69 92 1009.9
20260509182008 13 0 0.0 0.0 0.25 0.69 0.66 92 1010.3
20260509181508 13 0 0.0 0.0 0.28 0.69 0.66 92 1009.9
20260509181008 12 0 0.0 0.0 0.25 0.66 0.64 91 1010.3
20260509180508 12 0 0.0 0.0 0.23 0.64 0.61 91 1009.9
20260509180008 12 0 0.0 0.0 0.20 0.61 0.58 91 1010.3
20260509175508 12 0 0.0 0.0 0.20 0.58 0.56 91 1010.3
20260509175008 12 0 0.0 0.0 0.18 0.56 0.53 90 1010.3
20260509174508 12 0 0.0 0.0 0.15 0.53 0.51 90 1010.3
20260509174008 13 0 0.0 0.0 0.15 0.51 0.48 90 1010.3
20260509173529 13 0 0.0 0.0 0.13 0.48 0.46 90 1010.3
20260509173008 13 0 0.0 0.0 0.10 0.46 0.43 89 1010.3
20260509172529 13 0 0.0 0.0 0.08 0.43 0.41 89 1010.3
20260509172008 13 0 0.0 0.0 0.08 0.43 0.41 89 1010.3
20260509171508 13 0 0.0 0.0 0.05 0.41 0.38 88 1010.3
20260509171008 13 0 0.0 0.0 0.08 0.41 0.38 89 1009.9
20260509170508 13 0 0.0 0.0 0.08 0.41 0.38 88 1010.3
20260509170008 13 0 0.0 0.0 0.10 0.41 0.38 88 1010.3
20260509165508 13 0 0.0 0.0 0.08 0.38 0.36 88 1010.3
20260509165008 13 0 0.0 0.0 0.08 0.38 0.36 89 1010.3
20260509164508 13 0 0.0 0.0 0.10 0.38 0.36 89 1010.3
20260509164029 13 0 0.0 0.0 0.10 0.36 0.33 88 1010.6
20260509163529 13 0 0.0 0.0 0.13 0.36 0.33 88 1010.3
20260509163008 13 0 0.0 0.0 0.13 0.36 0.33 89 1010.3
20260509162508 13 0 0.0 0.0 0.15 0.36 0.33 88 1009.9
20260509162008 13 0 0.0 0.0 0.15 0.36 0.33 89 1010.3
20260509161508 13 0 0.0 0.0 0.15 0.36 0.33 89 1010.3
20260509161008 13 0 0.0 0.0 0.13 0.33 0.30 89 1010.6
20260509160529 13 0 0.0 0.0 0.13 0.33 0.30 89 1010.6
20260509160008 13 0 0.0 0.0 0.10 0.30 0.28 88 1010.6
20260509155508 13 0 0.0 0.0 0.10 0.30 0.28 88 1010.6
20260509155008 13 0 0.0 0.0 0.10 0.30 0.28 88 1010.6
20260509154508 13 0 0.0 0.0 0.08 0.28 0.25 86 1010.6
20260509154008 13 0 0.0 0.0 0.05 0.25 0.23 86 1011.0
20260509153508 13 0 0.0 0.0 0.03 0.23 0.20 86 1010.6
20260509153008 13 0 0.0 0.0 0.03 0.23 0.20 86 1010.6
20260509152529 13 0 0.0 0.0 0.03 0.20 0.18 85 1010.6
20260509152029 13 0 0.0 0.0 0.03 0.20 0.18 86 1010.6
20260509151529 13 0 0.0 0.0 0.03 0.20 0.18 85 1010.6
20260509151008 13 0 0.0 0.0 0.05 0.20 0.18 85 1010.6
20260509150508 13 0 0.0 0.0 0.05 0.20 0.18 87 1010.6
20260509150008 13 0 0.0 0.0 0.05 0.20 0.18 87 1010.6
20260509145508 13 0 0.0 0.0 0.05 0.20 0.18 87 1010.6
20260509145008 13 0 0.0 0.0 0.05 0.20 0.18 86 1010.6
20260509144507 13 0 0.0 0.0 0.05 0.20 0.18 86 1010.6
20260509144008 12 0 0.0 0.0 0.05 0.20 0.18 87 1010.6
20260509143529 12 0 0.0 0.0 0.05 0.20 0.18 86 1010.6
20260509143008 12 0 0.0 0.0 0.05 0.20 0.18 87 1010.6
20260509142529 12 0 0.0 0.0 0.05 0.18 0.15 87 1010.6
20260509142007 13 0 0.0 0.0 0.05 0.18 0.15 87 1010.6
20260509141529 12 0 0.0 0.0 0.05 0.18 0.15 88 1010.6
20260509141028 12 0 0.0 0.0 0.03 0.15 0.15 89 1010.6
20260509140507 12 0 0.0 0.0 0.03 0.15 0.13 89 1010.6
20260509140008 12 0 0.0 0.0 0.05 0.15 0.13 89 1011.0
20260509135507 12 0 0.0 0.0 0.05 0.15 0.13 89 1010.6
20260509135007 12 0 0.0 0.0 0.05 0.15 0.13 89 1010.6
20260509134528 12 0 0.0 0.0 0.05 0.15 0.13 90 1010.6
20260509134007 12 0 0.0 0.0 0.08 0.15 0.13 90 1010.6
20260509133507 12 0 0.0 0.0 0.08 0.15 0.13 90 1010.6
20260509133007 12 0 0.0 0.0 0.08 0.15 0.13 90 1010.6
20260509132507 12 0 0.0 0.0 0.05 0.13 0.10 90 1010.6
20260509132028 12 0 0.0 0.0 0.05 0.13 0.10 91 1010.6
20260509131507 12 0 0.0 0.0 0.05 0.13 0.10 91 1011.0
20260509131007 12 0 0.0 0.0 0.05 0.13 0.10 92 1011.0
20260509130507 11 0 0.0 0.0 0.05 0.15 0.10 92 1011.0
20260509130007 11 0 0.0 0.0 0.03 0.13 0.08 92 1011.0
20260509125528 11 0 0.0 0.0 0.03 0.13 0.08 92 1011.0
20260509125007 11 0 0.0 0.0 0.03 0.13 0.08 91 1011.0
20260509124507 11 0 0.0 0.0 0.03 0.13 0.08 92 1011.0
20260509124007 11 0 0.0 0.0 0.00 0.10 0.05 91 1010.6
20260509123507 11 0 0.0 0.0 0.00 0.10 0.05 91 1011.0
20260509123007 11 0 0.0 0.0 0.00 0.10 0.05 91 1010.6
20260509122507 11 0 0.0 0.0 0.00 0.10 0.05 91 1010.6
20260509122007 11 0 0.0 0.0 0.00 0.10 0.05 92 1010.6
20260509121507 11 0 0.0 0.0 0.00 0.10 0.05 92 1010.6
20260509121028 11 0 0.0 0.0 0.00 0.10 0.05 92 1010.6
20260509120508 11 0 0.0 0.0 0.00 0.10 0.05 92 1010.6
20260509120007 11 0 0.0 0.0 0.00 0.10 0.05 92 1010.6
20260509115507 11 0 0.0 0.0 0.00 0.10 0.05 93 1010.6
20260509115028 11 0 0.0 0.0 0.00 0.10 0.05 93 1010.3
20260509114507 11 0 0.0 0.0 0.00 0.10 0.05 94 1010.6
20260509114007 11 0 0.0 0.0 0.00 0.10 0.05 94 1010.6
20260509113507 11 0 0.0 0.0 0.00 0.10 0.05 94 1010.3
20260509113007 11 0 0.0 0.0 0.03 0.10 0.05 95 1010.3
20260509112528 10 0 0.0 0.0 0.03 0.10 0.05 94 1010.6
20260509112007 10 0 0.0 0.0 0.03 0.10 0.05 94 1010.3
20260509111528 10 0 0.0 0.0 0.03 0.10 0.05 94 1010.6
20260509111007 10 0 0.0 0.0 0.03 0.10 0.05 93 1010.6
20260509110507 10 0 0.0 0.0 0.03 0.10 0.05 93 1010.6
20260509110028 10 0 0.0 0.0 0.03 0.10 0.05 93 1010.3
20260509105507 10 0 0.0 0.0 0.03 0.10 0.05 93 1010.3
20260509105007 10 0 0.0 0.0 0.03 0.10 0.05 93 1009.9
20260509104507 10 0 0.0 0.0 0.03 0.10 0.05 93 1010.3
20260509104007 10 0 0.0 0.0 0.03 0.10 0.05 93 1010.3
20260509103507 10 0 0.0 0.0 0.03 0.10 0.05 94 1010.3
20260509103007 10 0 0.0 0.0 0.00 0.08 0.03 94 1010.3
20260509102528 10 0 0.0 0.0 0.00 0.08 0.03 94 1010.3
20260509102007 10 0 0.0 0.0 0.00 0.08 0.03 94 1010.3
20260509101507 10 0 0.0 0.0 0.00 0.08 0.03 94 1010.3
20260509101007 10 0 0.0 0.0 0.00 0.08 0.03 94 1010.3
20260509100507 10 0 0.0 0.0 0.00 0.08 0.03 94 1010.6
20260509100027 10 0 0.0 0.0 0.00 0.08 0.03 94 1010.3
20260509095507 10 0 0.0 0.0 0.00 0.08 0.03 94 1010.6
20260509095006 10 0 0.0 0.0 0.00 0.08 0.03 94 1010.6
20260509094506 10 0 0.0 0.0 0.00 0.08 0.03 94 1010.3
20260509094027 10 0 0.0 0.0 0.00 0.08 0.03 93 1010.6
20260509093506 10 0 0.0 0.0 0.00 0.08 0.03 93 1010.6
20260509093006 10 0 0.0 0.0 0.00 0.08 0.03 93 1010.6
20260509092506 10 0 0.0 0.0 0.00 0.08 0.03 92 1011.0
20260509092007 10 0 0.0 0.0 0.00 0.08 0.03 93 1010.6
20260509091506 10 0 0.0 0.0 0.00 0.08 0.03 92 1011.0
20260509091006 10 0 0.0 0.0 0.00 0.08 0.03 92 1010.6
20260509090506 10 0 0.0 0.0 0.00 0.08 0.03 91 1011.0
20260509090006 10 0 0.0 0.0 0.00 0.08 0.03 91 1010.6
20260509085506 10 0 0.0 0.0 0.00 0.08 0.03 90 1010.6
20260509085006 10 0 0.0 0.0 0.00 0.08 0.03 90 1010.3
20260509084527 10 0 0.0 0.0 0.00 0.08 0.03 89 1010.6
20260509084006 10 0 0.0 0.0 0.00 0.08 0.03 89 1010.6
20260509083506 10 0 0.0 0.0 0.00 0.08 0.03 89 1010.6
20260509083006 10 0 0.0 0.0 0.00 0.08 0.03 90 1010.6
20260509082506 10 0 0.0 0.0 0.00 0.08 0.03 90 1010.6
20260509082027 10 0 0.0 0.0 0.00 0.08 0.03 90 1010.6
20260509081506 10 0 0.0 0.0 0.00 0.08 0.03 90 1010.6
20260509081027 10 0 0.0 0.0 0.00 0.08 0.03 91 1010.6
20260509080506 10 0 0.0 0.0 0.00 0.08 0.03 91 1010.6
20260509080027 10 0 0.0 0.0 0.00 0.08 0.03 91 1011.0
20260509075506 10 0 0.0 0.0 0.00 0.08 0.03 91 1011.0
20260509075006 10 0 0.0 0.0 0.00 0.08 0.03 91 1011.0
20260509074506 10 0 0.0 0.0 0.00 0.08 0.03 91 1011.3
20260509074006 10 0 0.0 0.0 0.00 0.08 0.03 91 1011.0
20260509073506 10 0 0.0 0.0 0.00 0.08 0.03 91 1011.3
20260509073006 10 0 0.0 0.0 0.00 0.08 0.03 91 1011.3
20260509072506 10 0 0.0 0.0 0.00 0.08 0.03 91 1011.0
20260509072006 10 0 0.0 0.0 0.00 0.08 0.03 91 1011.3
20260509071506 10 0 0.0 0.0 0.00 0.08 0.03 91 1011.3
20260509071006 10 0 0.0 0.0 0.00 0.08 0.03 91 1011.3
20260509070506 10 0 0.0 0.0 0.00 0.08 0.03 91 1011.7
20260509070006 10 0 0.0 0.0 0.00 0.08 0.03 91 1011.3
20260509065506 10 0 0.0 0.0 0.00 0.08 0.03 91 1011.0
20260509065006 10 0 0.0 0.0 0.00 0.08 0.03 91 1011.3
20260509064506 10 0 0.0 0.0 0.00 0.08 0.03 91 1011.3
20260509064006 10 0 0.0 0.0 0.00 0.08 0.03 90 1011.7
20260509063506 10 0 0.0 0.0 0.00 0.08 0.03 89 1011.7
20260509063006 10 0 0.0 0.0 0.00 0.08 0.03 89 1011.7
20260509062506 10 0 0.0 0.0 0.00 0.08 0.03 89 1012.0
20260509062006 10 0 0.0 0.0 0.00 0.08 0.03 89 1011.7
20260509061506 10 0 0.0 0.0 0.00 0.08 0.03 88 1011.7
20260509061006 10 0 0.0 0.0 0.00 0.08 0.03 88 1012.0
20260509060506 10 0 0.0 0.0 0.00 0.08 0.03 88 1012.0
20260509060027 10 0 0.0 0.0 0.03 0.08 0.03 89 1012.0
20260509055506 10 0 0.0 0.0 0.03 0.08 0.03 89 1012.0
20260509055006 10 0 0.0 0.0 0.03 0.08 0.03 89 1012.3
20260509054505 10 0 0.0 0.0 0.03 0.08 0.03 89 1012.0
20260509054005 10 0 0.0 0.0 0.03 0.08 0.03 89 1012.0
20260509053505 10 0 0.0 0.0 0.03 0.08 0.03 90 1012.0
20260509053006 10 0 0.0 0.0 0.03 0.08 0.03 90 1012.3
20260509052527 10 0 0.0 0.0 0.03 0.08 0.03 88 1012.7
20260509052026 11 0 0.0 0.0 0.03 0.08 0.03 88 1012.7
20260509051506 10 0 0.0 0.0 0.03 0.08 0.03 88 1012.7
20260509051005 11 0 0.0 0.0 0.03 0.08 0.03 88 1012.3
20260509050526 11 0 0.0 0.0 0.03 0.08 0.03 88 1012.7
20260509050005 10 0 0.0 0.0 0.00 0.05 0.00 88 1012.7
20260509045506 10 0 0.0 0.0 0.00 0.05 0.00 88 1012.3
20260509045005 10 0 0.0 0.0 0.00 0.05 0.00 88 1012.3
20260509044505 11 0 0.0 0.0 0.00 0.05 0.00 88 1012.3
20260509044005 11 0 0.0 0.0 0.00 0.05 0.00 88 1012.3
20260509043526 11 0 0.0 0.0 0.00 0.05 0.00 88 1012.0
20260509043005 11 0 0.0 0.0 0.00 0.05 0.00 88 1012.0
20260509042505 11 0 0.0 0.0 0.00 0.05 0.00 89 1012.0
20260509042005 11 0 0.0 0.0 0.00 0.05 0.00 89 1012.0
20260509041505 11 0 0.0 0.0 0.00 0.05 0.00 87 1012.0
20260509041005 11 0 0.0 0.0 0.00 0.05 0.00 87 1012.3
20260509040526 11 0 0.0 0.0 0.00 0.05 0.00 87 1012.0
20260509040005 11 0 0.0 0.0 0.00 0.05 0.00 86 1012.0
20260509035505 11 0 0.0 0.0 0.00 0.05 0.05 86 1012.0
20260509035005 11 0 0.0 0.0 0.00 0.05 0.05 86 1012.0
20260509034505 11 0 0.0 0.0 0.00 0.08 0.05 86 1011.7
20260509034026 11 0 0.0 0.0 0.00 0.10 0.05 86 1012.0
20260509033505 11 0 0.0 0.0 0.00 0.10 0.05 87 1012.0
20260509033005 11 0 0.0 0.0 0.00 0.10 0.05 87 1012.0
20260509032526 11 0 0.0 0.0 0.00 0.10 0.05 86 1012.3
20260509032005 11 0 0.0 0.0 0.00 0.10 0.05 87 1012.0
20260509031505 11 0 0.0 0.0 0.00 0.10 0.05 86 1012.3
20260509031026 11 0 0.0 0.0 0.00 0.10 0.05 86 1012.3
20260509030505 11 0 0.0 0.0 0.00 0.10 0.05 87 1012.0
20260509030005 11 0 0.0 0.0 0.00 0.10 0.05 86 1012.0
20260509025505 11 0 0.0 0.0 0.00 0.10 0.05 86 1012.0
20260509025005 11 0 0.0 0.0 0.00 0.10 0.05 86 1012.3
20260509024526 11 0 0.0 0.0 0.00 0.10 0.05 84 1012.3
20260509024005 11 0 0.0 0.0 0.00 0.10 0.05 84 1012.7
20260509023505 11 0 0.0 0.0 0.00 0.10 0.05 84 1012.3
20260509023026 11 0 0.0 0.0 0.00 0.10 0.05 84 1012.3
20260509022505 11 0 0.0 0.0 0.00 0.10 0.05 84 1012.3
20260509022026 11 0 0.0 0.0 0.00 0.10 0.05 83 1012.3
20260509021505 11 0 0.0 0.0 0.00 0.10 0.05 83 1012.7
20260509021026 11 0 0.0 0.0 0.00 0.10 0.05 83 1012.3
20260509020505 11 0 0.0 0.0 0.00 0.10 0.05 84 1012.3
20260509020005 11 0 0.0 0.0 0.00 0.10 0.05 84 1012.0
20260509015505 11 0 0.0 0.0 0.00 0.10 0.05 84 1012.0
20260509015026 11 0 0.0 0.0 0.00 0.10 0.05 83 1012.3
20260509014505 11 0 0.0 0.0 0.00 0.10 0.05 84 1012.0
20260509014026 11 0 0.0 0.0 0.00 0.10 0.05 83 1012.0
20260509013505 11 0 0.0 0.0 0.00 0.10 0.05 83 1012.0
20260509013005 11 0 0.0 0.0 0.00 0.10 0.05 83 1012.0
20260509012526 11 0 0.0 0.0 0.00 0.10 0.05 83 1012.0
20260509012005 11 0 0.0 0.0 0.00 0.10 0.05 82 1011.7
20260509011505 11 0 0.0 0.0 0.00 0.10 0.05 82 1011.7
20260509011005 12 0 0.0 0.0 0.00 0.10 0.05 81 1011.7
20260509010526 12 0 0.0 0.0 0.00 0.10 0.05 81 1012.0
20260509010004 12 0 0.0 0.0 0.00 0.10 0.05 82 1011.7
20260509005505 12 0 0.0 0.0 0.00 0.10 0.05 80 1011.7
20260509005005 12 0 0.0 0.0 0.00 0.10 0.05 80 1011.7
20260509004505 12 0 0.0 0.0 0.00 0.10 0.05 80 1011.7
20260509004005 12 0 0.0 0.0 0.00 0.10 0.05 78 1011.7
20260509003505 12 0 0.0 0.0 0.00 0.10 0.05 75 1011.7
20260509003005 12 0 0.0 0.0 0.00 0.10 0.05 74 1011.7
20260509002526 12 0 0.0 0.0 0.00 0.10 0.05 74 1011.7
20260509002005 12 0 0.0 0.0 0.00 0.10 0.05 73 1011.3
20260509001504 12 0 0.0 0.0 0.00 0.10 0.05 72 1011.3
20260509001004 13 0 0.0 0.0 0.00 0.10 0.05 73 1011.3
20260509000504 13 0 0.0 0.0 0.00 0.10 0.05 73 1011.3
20260509000005 13 0 0.0 0.0 0.00 0.10 0.05 71 1011.3
20260508235504 13 0 0.0 0.0 0.00 0.10 0.05 71 1011.3
20260508235025 13 0 0.0 0.0 0.00 0.10 0.05 71 1011.7